Bom Jardim de Goias, Brazil
Current Conditions -  °F | °C
As of 5:00 PM on Friday 21 Nov 2014 (Local Time) from SBGO Reporting Station
Rain Showers Rain Showers  
Wind Chill: 90°   Ceiling: Unl
Heat Index: 90°   Visibility: 6mi
Dew Point: 55°   Wind: 8mph
Humidity: 31%   Direction: 70°ENE
Pressure: 29.88"   Gusts: NA
Location:  16.21°S, 52.17°W
Report Text: SBGO 211900Z 07007KT 9999 VCSH SCT035 FEW040TCU 32/13 Q1012
Loading
Personal Weather Stations






























Interactive Weather Map New forecast layout! Learn more

10-Day Weather Forecast

Advertisements
Track Severe Weather on mobile